Royal Klipper — PCIH — position and weather

sailwx.info

Track history (hours):
 
Tides and Currents Weather Stations Pressure Air Temp Water Temp Dewpoint Dewpoint Depression Visibility Wind Speed Wind Dir Waves Ship Positions

Royal Klipper

Last reported at 2017-Mar-22 23:20 UTC. Time now 2017-Mar-27 08:34 UTC.
Position N 09°14' W 079°55'.

Type: Cargo ship. MMSI: 246428000.

Date/timePositionNaut miles runAvg speedWind from/ knotsBaromVisibWave heightAir tempDewpointWater temp
2017-Mar-22 23:20N 09°14' W 079°55'3 3.6
2017-Mar-22 22:33N 09°16' W 079°55'1 0.9
2017-Mar-22 21:33N 09°17' W 079°55'5 4.8
2017-Mar-22 20:32N 09°22' W 079°56'0 0.0
2017-Mar-22 19:32N 09°22' W 079°56'0 0.0
2017-Mar-22 18:32N 09°22' W 079°56'0 0.0
2017-Mar-22 17:32N 09°22' W 079°56'0 0.0
2017-Mar-22 16:32N 09°22' W 079°56'1 0.6
2017-Mar-22 15:33N 09°22' W 079°56'  
2017-Mar-17 23:10N 39°16' W 075°20'1117.7
2017-Mar-17 22:33N 39°24' W 075°30'1514.6
2017-Mar-17 21:33N 39°38' W 075°34'6 5.6
2017-Mar-17 20:33N 39°43' W 075°31'0 0.0
2017-Mar-17 19:33N 39°43' W 075°31'0 0.0
2017-Mar-17 18:32N 39°43' W 075°31'0 0.0
2017-Mar-17 17:32N 39°43' W 075°31'0 0.0
2017-Mar-17 16:32N 39°43' W 075°31'0 0.0
2017-Mar-17 15:26N 39°43' W 075°31'0 0.0
2017-Mar-17 14:32N 39°43' W 075°31'0 0.0
2017-Mar-17 13:32N 39°43' W 075°31'0 0.0
2017-Mar-17 12:32N 39°43' W 075°31'0 0.0
2017-Mar-17 11:23N 39°43' W 075°31'0 0.0
2017-Mar-17 10:29N 39°43' W 075°31'0 0.5
2017-Mar-17 09:31N 39°43' W 075°32'0 0.0
2017-Mar-17 08:31N 39°43' W 075°32'0 0.0
2017-Mar-17 07:31N 39°43' W 075°32'0 0.0
2017-Mar-17 06:31N 39°43' W 075°32'0 0.0
2017-Mar-17 05:31N 39°43' W 075°32'0 0.0
2017-Mar-17 04:31N 39°43' W 075°32'0 0.0
2017-Mar-17 03:31N 39°43' W 075°32'0 0.0
2017-Mar-17 02:31N 39°43' W 075°32'0 0.0
2017-Mar-17 01:31N 39°43' W 075°32'0 0.0
2017-Mar-17 00:31N 39°43' W 075°32'0 0.0
2017-Mar-16 23:28N 39°43' W 075°32'0 0.0
2017-Mar-16 22:31N 39°43' W 075°32'0 0.0
2017-Mar-16 21:28N 39°43' W 075°32'0 0.0
2017-Mar-16 20:22N 39°43' W 075°32'0 0.0
2017-Mar-16 19:31N 39°43' W 075°32'0 0.0
2017-Mar-16 18:31N 39°43' W 075°32'0 0.0
2017-Mar-16 17:31N 39°43' W 075°32'0 0.0
2017-Mar-16 16:31N 39°43' W 075°32'0 0.0
2017-Mar-16 15:31N 39°43' W 075°32'0 0.0
2017-Mar-16 14:31N 39°43' W 075°32'0 0.0
2017-Mar-16 13:28N 39°43' W 075°32'0 0.0
2017-Mar-16 12:31N 39°43' W 075°32'0 0.0
2017-Mar-16 11:31N 39°43' W 075°32'0 0.0
2017-Mar-16 10:31N 39°43' W 075°32'0 0.0
2017-Mar-16 09:31N 39°43' W 075°32'0 0.0
2017-Mar-16 08:31N 39°43' W 075°32'0 0.0
2017-Mar-16 07:31N 39°43' W 075°32'0 0.0
2017-Mar-16 06:31N 39°43' W 075°32'0 0.0
2017-Mar-16 05:28N 39°43' W 075°32'0 0.0
2017-Mar-16 04:31N 39°43' W 075°32'0 0.0
2017-Mar-16 03:28N 39°43' W 075°32'0 0.0
2017-Mar-16 02:28N 39°43' W 075°32'0 0.0
2017-Mar-16 01:31N 39°43' W 075°32'0 0.0
2017-Mar-16 00:31N 39°43' W 075°32'0 0.0
2017-Mar-15 23:28N 39°43' W 075°32'0 0.0
2017-Mar-15 22:31N 39°43' W 075°32'0 0.0
2017-Mar-15 21:31N 39°43' W 075°32'0 0.0
2017-Mar-15 20:28N 39°43' W 075°32'0 0.0
2017-Mar-15 19:31N 39°43' W 075°32'0 0.0
2017-Mar-15 18:31N 39°43' W 075°32'0 0.0
2017-Mar-15 17:28N 39°43' W 075°32'0 0.0
2017-Mar-15 16:28N 39°43' W 075°32'0 0.0
2017-Mar-15 15:31N 39°43' W 075°32'0 0.0
2017-Mar-15 14:31N 39°43' W 075°32'0 0.0
2017-Mar-15 13:28N 39°43' W 075°32'0 0.0
2017-Mar-15 12:31N 39°43' W 075°32'0 0.0
2017-Mar-15 11:31N 39°43' W 075°32'0 0.0
2017-Mar-15 10:31N 39°43' W 075°32'0 0.0
2017-Mar-15 09:31N 39°43' W 075°32'0 0.0
2017-Mar-15 08:31N 39°43' W 075°32'0 0.0
2017-Mar-15 07:29N 39°43' W 075°32'0 0.0
2017-Mar-15 06:29N 39°43' W 075°32'0 0.0
2017-Mar-15 05:29N 39°43' W 075°32'0 0.0
2017-Mar-15 04:29N 39°43' W 075°32'0 0.0
2017-Mar-15 03:29N 39°43' W 075°32'0 0.0
2017-Mar-15 02:29N 39°43' W 075°32'0 0.0
2017-Mar-15 01:29N 39°43' W 075°32'0 0.0
2017-Mar-15 00:23N 39°43' W 075°32'0 0.0
2017-Mar-14 23:29N 39°43' W 075°32'0 0.0
2017-Mar-14 22:11N 39°43' W 075°32'0 0.0
2017-Mar-14 21:29N 39°43' W 075°32'0 0.0
2017-Mar-14 20:23N 39°43' W 075°32'0 0.0
2017-Mar-14 19:29N 39°43' W 075°32'0 0.0
2017-Mar-14 18:29N 39°43' W 075°32'0 0.0
2017-Mar-14 17:29N 39°43' W 075°32'0 0.0
2017-Mar-14 16:29N 39°43' W 075°32'0 0.0
2017-Mar-14 15:29N 39°43' W 075°32'0 0.0
2017-Mar-14 14:29N 39°43' W 075°32'0 0.0
2017-Mar-14 13:29N 39°43' W 075°32'0 0.0
2017-Mar-14 12:29N 39°43' W 075°32'0 0.0
2017-Mar-14 11:29N 39°43' W 075°32'0 0.0
2017-Mar-14 10:29N 39°43' W 075°32'0 0.0
2017-Mar-14 09:29N 39°43' W 075°32'0 0.0
2017-Mar-14 08:17N 39°43' W 075°32'0 0.0
2017-Mar-14 07:29N 39°43' W 075°32'0 0.0
2017-Mar-14 06:29N 39°43' W 075°32'0 0.0
2017-Mar-14 05:29N 39°43' W 075°32'0 0.0
2017-Mar-14 04:29N 39°43' W 075°32'0 0.0
2017-Mar-14 03:29N 39°43' W 075°32'0 0.0
2017-Mar-14 02:29N 39°43' W 075°32'0 0.0
2017-Mar-14 01:29N 39°43' W 075°32'0 0.0
2017-Mar-14 00:29N 39°43' W 075°32'0 0.0
2017-Mar-13 23:29N 39°43' W 075°32'0 0.0
2017-Mar-13 22:29N 39°43' W 075°32'0 0.0
2017-Mar-13 21:29N 39°43' W 075°32'0 0.0
2017-Mar-13 20:29N 39°43' W 075°32'0 0.0
2017-Mar-13 19:29N 39°43' W 075°32'0 0.0
2017-Mar-13 18:29N 39°43' W 075°32'0 0.0
2017-Mar-13 17:29N 39°43' W 075°32'0 0.0
2017-Mar-13 16:29N 39°43' W 075°32'0 0.0
2017-Mar-13 15:29N 39°43' W 075°32'0 0.0
2017-Mar-13 14:29N 39°43' W 075°32'0 0.0
2017-Mar-13 13:29N 39°43' W 075°32'0 0.0
2017-Mar-13 12:29N 39°43' W 075°32'0 0.0
2017-Mar-13 11:29N 39°43' W 075°32'0 0.0
2017-Mar-13 10:29N 39°43' W 075°32'0 0.0
2017-Mar-13 09:29N 39°43' W 075°32'0 0.0
2017-Mar-13 08:29N 39°43' W 075°32'0 0.0
2017-Mar-13 07:29N 39°43' W 075°32'0 0.0
2017-Mar-13 06:29N 39°43' W 075°32'0 0.0
2017-Mar-13 05:29N 39°43' W 075°32'0 0.0
2017-Mar-13 04:29N 39°43' W 075°32'0 0.0
2017-Mar-13 03:29N 39°43' W 075°32'0 0.0
2017-Mar-13 02:33N 39°43' W 075°32'0 0.0
2017-Mar-13 01:33N 39°43' W 075°32'0 0.0
2017-Mar-13 00:33N 39°43' W 075°32'0 0.0
2017-Mar-12 23:33N 39°43' W 075°32'  
Track history (hours):
 
Tides and Currents Weather Stations Pressure Air Temp Water Temp Dewpoint Dewpoint Depression Visibility Wind Speed Wind Dir Waves Ship Positions

Royal Klipper

Last reported at 2017-Mar-22 23:20 UTC. Time now 2017-Mar-27 08:34 UTC.
Position N 09°14' W 079°55'.

Type: Cargo ship. MMSI: 246428000.

Date/timePositionNaut miles runAvg speedWind from/ knotsBaromVisibWave heightAir tempDewpointWater temp
2017-Mar-22 23:20N 09°14' W 079°55'3 3.6
2017-Mar-22 22:33N 09°16' W 079°55'1 0.9
2017-Mar-22 21:33N 09°17' W 079°55'5 4.8
2017-Mar-22 20:32N 09°22' W 079°56'0 0.0
2017-Mar-22 19:32N 09°22' W 079°56'0 0.0
2017-Mar-22 18:32N 09°22' W 079°56'0 0.0
2017-Mar-22 17:32N 09°22' W 079°56'0 0.0
2017-Mar-22 16:32N 09°22' W 079°56'1 0.6
2017-Mar-22 15:33N 09°22' W 079°56'  
2017-Mar-17 23:10N 39°16' W 075°20'1117.7
2017-Mar-17 22:33N 39°24' W 075°30'1514.6
2017-Mar-17 21:33N 39°38' W 075°34'6 5.6
2017-Mar-17 20:33N 39°43' W 075°31'0 0.0
2017-Mar-17 19:33N 39°43' W 075°31'0 0.0
2017-Mar-17 18:32N 39°43' W 075°31'0 0.0
2017-Mar-17 17:32N 39°43' W 075°31'0 0.0
2017-Mar-17 16:32N 39°43' W 075°31'0 0.0
2017-Mar-17 15:26N 39°43' W 075°31'0 0.0
2017-Mar-17 14:32N 39°43' W 075°31'0 0.0
2017-Mar-17 13:32N 39°43' W 075°31'0 0.0
2017-Mar-17 12:32N 39°43' W 075°31'0 0.0
2017-Mar-17 11:23N 39°43' W 075°31'0 0.0
2017-Mar-17 10:29N 39°43' W 075°31'0 0.5
2017-Mar-17 09:31N 39°43' W 075°32'0 0.0
2017-Mar-17 08:31N 39°43' W 075°32'0 0.0
2017-Mar-17 07:31N 39°43' W 075°32'0 0.0
2017-Mar-17 06:31N 39°43' W 075°32'0 0.0
2017-Mar-17 05:31N 39°43' W 075°32'0 0.0
2017-Mar-17 04:31N 39°43' W 075°32'0 0.0
2017-Mar-17 03:31N 39°43' W 075°32'0 0.0
2017-Mar-17 02:31N 39°43' W 075°32'0 0.0
2017-Mar-17 01:31N 39°43' W 075°32'0 0.0
2017-Mar-17 00:31N 39°43' W 075°32'0 0.0
2017-Mar-16 23:28N 39°43' W 075°32'0 0.0
2017-Mar-16 22:31N 39°43' W 075°32'0 0.0
2017-Mar-16 21:28N 39°43' W 075°32'0 0.0
2017-Mar-16 20:22N 39°43' W 075°32'0 0.0
2017-Mar-16 19:31N 39°43' W 075°32'0 0.0
2017-Mar-16 18:31N 39°43' W 075°32'0 0.0
2017-Mar-16 17:31N 39°43' W 075°32'0 0.0
2017-Mar-16 16:31N 39°43' W 075°32'0 0.0
2017-Mar-16 15:31N 39°43' W 075°32'0 0.0
2017-Mar-16 14:31N 39°43' W 075°32'0 0.0
2017-Mar-16 13:28N 39°43' W 075°32'0 0.0
2017-Mar-16 12:31N 39°43' W 075°32'0 0.0
2017-Mar-16 11:31N 39°43' W 075°32'0 0.0
2017-Mar-16 10:31N 39°43' W 075°32'0 0.0
2017-Mar-16 09:31N 39°43' W 075°32'0 0.0
2017-Mar-16 08:31N 39°43' W 075°32'0 0.0
2017-Mar-16 07:31N 39°43' W 075°32'0 0.0
2017-Mar-16 06:31N 39°43' W 075°32'0 0.0
2017-Mar-16 05:28N 39°43' W 075°32'0 0.0
2017-Mar-16 04:31N 39°43' W 075°32'0 0.0
2017-Mar-16 03:28N 39°43' W 075°32'0 0.0
2017-Mar-16 02:28N 39°43' W 075°32'0 0.0
2017-Mar-16 01:31N 39°43' W 075°32'0 0.0
2017-Mar-16 00:31N 39°43' W 075°32'0 0.0
2017-Mar-15 23:28N 39°43' W 075°32'0 0.0
2017-Mar-15 22:31N 39°43' W 075°32'0 0.0
2017-Mar-15 21:31N 39°43' W 075°32'0 0.0
2017-Mar-15 20:28N 39°43' W 075°32'0 0.0
2017-Mar-15 19:31N 39°43' W 075°32'0 0.0
2017-Mar-15 18:31N 39°43' W 075°32'0 0.0
2017-Mar-15 17:28N 39°43' W 075°32'0 0.0
2017-Mar-15 16:28N 39°43' W 075°32'0 0.0
2017-Mar-15 15:31N 39°43' W 075°32'0 0.0
2017-Mar-15 14:31N 39°43' W 075°32'0 0.0
2017-Mar-15 13:28N 39°43' W 075°32'0 0.0
2017-Mar-15 12:31N 39°43' W 075°32'0 0.0
2017-Mar-15 11:31N 39°43' W 075°32'0 0.0
2017-Mar-15 10:31N 39°43' W 075°32'0 0.0
2017-Mar-15 09:31N 39°43' W 075°32'0 0.0
2017-Mar-15 08:31N 39°43' W 075°32'0 0.0
2017-Mar-15 07:29N 39°43' W 075°32'0 0.0
2017-Mar-15 06:29N 39°43' W 075°32'0 0.0
2017-Mar-15 05:29N 39°43' W 075°32'0 0.0
2017-Mar-15 04:29N 39°43' W 075°32'0 0.0
2017-Mar-15 03:29N 39°43' W 075°32'0 0.0
2017-Mar-15 02:29N 39°43' W 075°32'0 0.0
2017-Mar-15 01:29N 39°43' W 075°32'0 0.0
2017-Mar-15 00:23N 39°43' W 075°32'0 0.0
2017-Mar-14 23:29N 39°43' W 075°32'0 0.0
2017-Mar-14 22:11N 39°43' W 075°32'0 0.0
2017-Mar-14 21:29N 39°43' W 075°32'0 0.0
2017-Mar-14 20:23N 39°43' W 075°32'0 0.0
2017-Mar-14 19:29N 39°43' W 075°32'0 0.0
2017-Mar-14 18:29N 39°43' W 075°32'0 0.0
2017-Mar-14 17:29N 39°43' W 075°32'0 0.0
2017-Mar-14 16:29N 39°43' W 075°32'0 0.0
2017-Mar-14 15:29N 39°43' W 075°32'0 0.0
2017-Mar-14 14:29N 39°43' W 075°32'0 0.0
2017-Mar-14 13:29N 39°43' W 075°32'0 0.0
2017-Mar-14 12:29N 39°43' W 075°32'0 0.0
2017-Mar-14 11:29N 39°43' W 075°32'0 0.0
2017-Mar-14 10:29N 39°43' W 075°32'0 0.0
2017-Mar-14 09:29N 39°43' W 075°32'0 0.0
2017-Mar-14 08:17N 39°43' W 075°32'0 0.0
2017-Mar-14 07:29N 39°43' W 075°32'0 0.0
2017-Mar-14 06:29N 39°43' W 075°32'0 0.0
2017-Mar-14 05:29N 39°43' W 075°32'0 0.0
2017-Mar-14 04:29N 39°43' W 075°32'0 0.0
2017-Mar-14 03:29N 39°43' W 075°32'0 0.0
2017-Mar-14 02:29N 39°43' W 075°32'0 0.0
2017-Mar-14 01:29N 39°43' W 075°32'0 0.0
2017-Mar-14 00:29N 39°43' W 075°32'0 0.0
2017-Mar-13 23:29N 39°43' W 075°32'0 0.0
2017-Mar-13 22:29N 39°43' W 075°32'0 0.0
2017-Mar-13 21:29N 39°43' W 075°32'0 0.0
2017-Mar-13 20:29N 39°43' W 075°32'0 0.0
2017-Mar-13 19:29N 39°43' W 075°32'0 0.0
2017-Mar-13 18:29N 39°43' W 075°32'0 0.0
2017-Mar-13 17:29N 39°43' W 075°32'0 0.0
2017-Mar-13 16:29N 39°43' W 075°32'0 0.0
2017-Mar-13 15:29N 39°43' W 075°32'0 0.0
2017-Mar-13 14:29N 39°43' W 075°32'0 0.0
2017-Mar-13 13:29N 39°43' W 075°32'0 0.0
2017-Mar-13 12:29N 39°43' W 075°32'0 0.0
2017-Mar-13 11:29N 39°43' W 075°32'0 0.0
2017-Mar-13 10:29N 39°43' W 075°32'0 0.0
2017-Mar-13 09:29N 39°43' W 075°32'0 0.0
2017-Mar-13 08:29N 39°43' W 075°32'0 0.0
2017-Mar-13 07:29N 39°43' W 075°32'0 0.0
2017-Mar-13 06:29N 39°43' W 075°32'0 0.0
2017-Mar-13 05:29N 39°43' W 075°32'0 0.0
2017-Mar-13 04:29N 39°43' W 075°32'0 0.0
2017-Mar-13 03:29N 39°43' W 075°32'0 0.0
2017-Mar-13 02:33N 39°43' W 075°32'0 0.0
2017-Mar-13 01:33N 39°43' W 075°32'0 0.0
2017-Mar-13 00:33N 39°43' W 075°32'0 0.0
2017-Mar-12 23:33N 39°43' W 075°32'  

Dump ship's entire track history